createdAt,value
2019-03-11T00:00:38.866Z,65.45
2019-03-11T00:04:43.766Z,65.29
2019-03-11T00:08:48.661Z,65.05
2019-03-11T00:12:53.552Z,65.08
2019-03-11T00:16:58.450Z,64.90
2019-03-11T00:21:03.344Z,64.76
2019-03-11T00:25:08.245Z,64.65
2019-03-11T00:29:13.135Z,64.52
2019-03-11T00:33:18.016Z,64.34
2019-03-11T00:37:22.912Z,64.22
2019-03-11T00:41:27.817Z,63.93
2019-03-11T00:45:32.723Z,63.84
2019-03-11T00:49:37.615Z,64.67
2019-03-11T00:53:42.501Z,63.41
2019-03-11T00:57:47.406Z,63.18
2019-03-11T01:01:52.309Z,62.80
2019-03-11T01:05:57.241Z,62.63
2019-03-11T01:10:02.095Z,62.16
2019-03-11T01:14:08.242Z,61.88
2019-03-11T01:18:13.139Z,61.07
2019-03-11T01:22:18.042Z,60.73
2019-03-11T01:26:22.937Z,60.01
2019-03-11T01:30:27.844Z,60.05
2019-03-11T01:34:32.726Z,60.01
2019-03-11T01:38:37.627Z,59.60
2019-03-11T01:42:42.519Z,59.24
2019-03-11T01:46:47.414Z,58.88
2019-03-11T01:50:52.311Z,58.87
2019-03-11T01:54:57.234Z,58.81
2019-03-11T01:59:02.107Z,57.81
2019-03-11T02:03:07.247Z,57.85
2019-03-11T02:07:12.142Z,58.24
2019-03-11T02:11:17.024Z,58.43
2019-03-11T02:15:21.915Z,58.19
2019-03-11T02:19:26.799Z,58.20
2019-03-11T02:23:31.698Z,58.43
2019-03-11T02:27:36.595Z,58.79
2019-03-11T02:31:41.489Z,58.69
2019-03-11T02:35:46.380Z,59.10
2019-03-11T02:39:51.272Z,58.79
2019-03-11T02:43:56.173Z,58.79
2019-03-11T02:48:01.069Z,59.35
2019-03-11T02:52:05.966Z,65.61
2019-03-11T02:56:10.866Z,58.96
2019-03-11T03:00:19.143Z,57.93
2019-03-11T03:04:31.494Z,58.31
2019-03-11T03:08:36.386Z,60.35
2019-03-11T03:12:41.282Z,65.25
2019-03-11T03:16:46.178Z,69.23
2019-03-11T03:20:51.054Z,71.69
2019-03-11T03:24:55.941Z,72.34
2019-03-11T03:29:00.856Z,72.95
2019-03-11T03:33:05.735Z,73.72
2019-03-11T03:37:10.620Z,73.12
2019-03-11T03:41:15.498Z,72.86
2019-03-11T03:45:25.976Z,72.64
2019-03-11T03:49:31.934Z,73.02
2019-03-11T03:53:36.819Z,74.45
2019-03-11T03:57:41.729Z,74.42
2019-03-11T04:01:46.632Z,74.38
2019-03-11T04:05:51.490Z,73.71
2019-03-11T04:09:56.380Z,73.95
2019-03-11T04:14:01.270Z,74.46
2019-03-11T04:18:08.766Z,74.68
2019-03-11T04:22:13.646Z,74.46
2019-03-11T04:26:18.532Z,74.75
2019-03-11T04:30:29.635Z,74.90
2019-03-11T04:34:36.068Z,75.84
2019-03-11T04:38:41.193Z,76.16
2019-03-11T04:42:46.069Z,76.02
2019-03-11T04:46:50.973Z,81.87
2019-03-11T04:50:55.869Z,76.39
2019-03-11T04:55:00.755Z,76.28
2019-03-11T04:59:10.851Z,79.45
2019-03-11T05:03:15.723Z,80.58
2019-03-11T05:07:20.616Z,81.52
2019-03-11T05:11:25.512Z,82.39
2019-03-11T05:15:30.401Z,82.71
2019-03-11T05:19:35.303Z,82.15
2019-03-11T05:23:40.169Z,81.32
2019-03-11T05:27:46.132Z,79.00
2019-03-11T05:31:51.032Z,77.85
2019-03-11T05:35:55.919Z,78.53
2019-03-11T05:40:00.813Z,79.17
2019-03-11T05:44:05.686Z,78.85
2019-03-11T05:48:10.583Z,78.82
2019-03-11T05:52:15.470Z,77.91
2019-03-11T05:56:20.362Z,76.68
2019-03-11T06:00:29.627Z,76.00
2019-03-11T06:04:34.504Z,75.84
2019-03-11T06:08:39.391Z,74.27
2019-03-11T06:12:44.279Z,73.50
2019-03-11T06:16:49.172Z,72.71
2019-03-11T06:20:55.702Z,71.83
2019-03-11T06:25:00.576Z,70.74
2019-03-11T06:29:05.538Z,73.94
2019-03-11T06:33:10.429Z,70.77
2019-03-11T06:37:15.311Z,69.10
2019-03-11T06:41:20.201Z,69.20
2019-03-11T06:45:25.085Z,69.45
2019-03-11T06:49:30.943Z,69.99
2019-03-11T06:53:35.840Z,70.85
2019-03-11T06:57:40.800Z,74.65
2019-03-11T07:01:45.689Z,75.96
2019-03-11T07:05:50.589Z,76.87
2019-03-11T07:09:55.472Z,76.55
2019-03-11T07:14:00.371Z,76.36
2019-03-11T07:18:05.335Z,74.99
2019-03-11T07:22:10.215Z,73.57
2019-03-11T07:26:15.102Z,70.76
2019-03-11T07:30:21.130Z,69.36
2019-03-11T07:34:26.025Z,70.53
2019-03-11T07:38:30.920Z,71.15
2019-03-11T07:42:35.799Z,70.17
2019-03-11T07:46:40.680Z,69.08
2019-03-11T07:50:45.565Z,68.49
2019-03-11T07:54:50.454Z,67.61
2019-03-11T07:58:55.356Z,67.46
2019-03-11T08:03:00.245Z,67.28
2019-03-11T08:07:05.153Z,65.42
2019-03-11T08:11:10.019Z,62.23
2019-03-11T08:15:15.753Z,62.67
2019-03-11T08:19:20.643Z,63.40
2019-03-11T08:23:26.319Z,62.19
2019-03-11T08:27:31.214Z,61.57
2019-03-11T08:31:36.371Z,60.84
2019-03-11T08:35:41.253Z,60.52
2019-03-11T08:39:46.144Z,57.73
2019-03-11T08:43:51.038Z,56.94
2019-03-11T08:47:55.925Z,56.23
2019-03-11T08:52:01.195Z,56.16
2019-03-11T08:56:06.089Z,57.92
2019-03-11T09:00:16.875Z,58.37
2019-03-11T09:04:21.771Z,59.15
2019-03-11T09:08:26.660Z,59.16
2019-03-11T09:12:31.555Z,61.73
2019-03-11T09:16:36.440Z,63.56
2019-03-11T09:20:41.345Z,65.14
2019-03-11T09:24:47.059Z,64.16
2019-03-11T09:28:51.958Z,63.61
2019-03-11T09:32:56.850Z,63.80
2019-03-11T09:37:02.815Z,63.84
2019-03-11T09:41:07.720Z,62.27
2019-03-11T09:45:17.898Z,61.21
2019-03-11T09:49:24.381Z,59.93
2019-03-11T09:53:29.257Z,59.37
2019-03-11T09:57:34.155Z,58.17
2019-03-11T10:01:39.045Z,60.47
2019-03-11T10:05:45.109Z,60.00
2019-03-11T10:09:50.010Z,59.31
2019-03-11T10:13:54.904Z,58.28
2019-03-11T10:17:59.805Z,56.89
2019-03-11T10:22:04.702Z,55.37
2019-03-11T10:26:09.588Z,56.76
2019-03-11T10:30:21.683Z,55.94
2019-03-11T10:34:26.563Z,55.10
2019-03-11T10:38:31.450Z,54.66
2019-03-11T10:42:36.341Z,55.20
2019-03-11T10:46:41.237Z,55.41
2019-03-11T10:50:46.180Z,55.11
2019-03-11T10:54:51.034Z,54.46
2019-03-11T10:58:55.909Z,54.34
2019-03-11T11:03:01.151Z,55.30
2019-03-11T11:07:06.035Z,55.48
2019-03-11T11:11:11.217Z,55.51
2019-03-11T11:15:26.898Z,55.62
2019-03-11T11:19:31.786Z,55.67
2019-03-11T11:23:36.685Z,54.94
2019-03-11T11:27:41.582Z,55.24
2019-03-11T11:31:46.481Z,55.51
2019-03-11T11:35:51.377Z,55.27
2019-03-11T11:39:56.255Z,55.02
2019-03-11T11:44:01.152Z,54.55
2019-03-11T11:48:08.251Z,54.43
2019-03-11T11:52:12.635Z,55.24
2019-03-11T11:56:17.542Z,55.84
2019-03-11T12:00:35.555Z,56.34
2019-03-11T12:04:40.441Z,56.72
2019-03-11T12:08:45.340Z,56.56
2019-03-11T12:12:50.231Z,56.09
2019-03-11T12:16:55.130Z,55.46
2019-03-11T12:21:00.024Z,55.61
2019-03-11T12:25:07.853Z,55.89
2019-03-11T12:29:12.758Z,55.03
2019-03-11T12:33:20.237Z,55.04
2019-03-11T12:37:24.561Z,54.70
2019-03-11T12:41:29.447Z,54.63
2019-03-11T12:45:34.328Z,53.51
2019-03-11T12:49:39.216Z,53.06
2019-03-11T12:53:44.102Z,53.16
2019-03-11T12:57:48.997Z,54.49
2019-03-11T13:01:53.898Z,55.26
2019-03-11T13:05:58.778Z,54.78
2019-03-11T13:10:05.877Z,53.37
2019-03-11T13:14:11.807Z,53.25
2019-03-11T13:18:34.572Z,53.26
2019-03-11T13:22:39.470Z,54.75
2019-03-11T13:26:44.357Z,56.43
2019-03-11T13:30:49.253Z,58.21
2019-03-11T13:34:55.743Z,60.14
2019-03-11T13:39:00.635Z,62.16
2019-03-11T13:43:07.137Z,63.74
2019-03-11T13:47:12.019Z,64.26
2019-03-11T13:51:16.923Z,64.98
2019-03-11T13:55:21.873Z,64.20
2019-03-11T13:59:26.710Z,63.09
2019-03-11T14:03:31.602Z,61.40
2019-03-11T14:07:36.491Z,60.66
2019-03-11T14:11:41.383Z,58.61
2019-03-11T14:15:46.387Z,56.71
2019-03-11T14:19:51.791Z,59.09
2019-03-11T14:23:56.690Z,60.11
2019-03-11T14:28:01.571Z,60.77
2019-03-11T14:32:06.465Z,60.72
2019-03-11T14:36:11.365Z,60.23
2019-03-11T14:40:17.400Z,59.80
2019-03-11T14:44:22.291Z,59.28
2019-03-11T14:48:27.166Z,59.42
2019-03-11T14:52:33.564Z,59.46
2019-03-11T14:56:38.456Z,59.50
2019-03-11T15:00:43.345Z,62.17
2019-03-11T15:04:50.836Z,62.94
2019-03-11T15:08:54.883Z,63.54
2019-03-11T15:12:59.778Z,64.60
2019-03-11T15:17:04.666Z,64.65
2019-03-11T15:21:09.557Z,64.26
2019-03-11T15:25:15.485Z,63.47
2019-03-11T15:29:20.364Z,62.72
2019-03-11T15:33:25.255Z,61.86
2019-03-11T15:37:30.152Z,61.86
2019-03-11T15:41:35.039Z,62.00
2019-03-11T15:45:41.001Z,63.18
2019-03-11T15:49:45.881Z,63.20
2019-03-11T15:53:50.766Z,63.28
2019-03-11T15:57:55.658Z,63.24
2019-03-11T16:02:00.561Z,62.09
2019-03-11T16:06:06.545Z,62.29
2019-03-11T16:10:17.089Z,62.50
2019-03-11T16:14:20.443Z,62.59
2019-03-11T16:18:26.286Z,60.82
2019-03-11T16:22:32.237Z,61.07
2019-03-11T16:26:37.414Z,61.25
2019-03-11T16:30:42.370Z,60.31
2019-03-11T16:34:47.257Z,59.58
2019-03-11T16:38:52.143Z,59.63
2019-03-11T16:42:57.025Z,58.94
2019-03-11T16:47:01.924Z,59.13
2019-03-11T16:51:06.831Z,59.54
2019-03-11T16:55:19.298Z,59.56
2019-03-11T16:59:24.200Z,59.75
2019-03-11T17:03:29.083Z,59.18
2019-03-11T17:07:34.050Z,59.01
2019-03-11T17:11:38.944Z,58.51
2019-03-11T17:15:43.830Z,58.42
2019-03-11T17:19:48.713Z,57.99
2019-03-11T17:23:53.622Z,57.95
2019-03-11T17:27:58.522Z,58.29
2019-03-11T17:32:03.419Z,57.95
2019-03-11T17:36:08.384Z,57.92
2019-03-11T17:40:16.081Z,57.96
2019-03-11T17:44:20.978Z,57.98
2019-03-11T17:48:25.955Z,58.01
2019-03-11T17:52:30.849Z,57.87
2019-03-11T17:56:35.742Z,57.98
2019-03-11T18:00:42.277Z,57.42
2019-03-11T18:04:47.189Z,57.49
2019-03-11T18:08:52.156Z,56.75
2019-03-11T18:12:57.047Z,56.52
2019-03-11T18:17:01.937Z,56.23
2019-03-11T18:21:07.795Z,56.86
2019-03-11T18:25:14.904Z,57.46
2019-03-11T18:29:19.885Z,57.30
2019-03-11T18:33:24.775Z,57.33
2019-03-11T18:37:29.686Z,57.37
2019-03-11T18:41:34.560Z,57.39
2019-03-11T18:45:39.520Z,57.50
2019-03-11T18:49:45.373Z,57.79
2019-03-11T18:53:50.265Z,57.90
2019-03-11T18:57:55.136Z,57.89
2019-03-11T19:02:00.051Z,57.75
2019-03-11T19:06:04.969Z,58.97
2019-03-11T19:10:12.483Z,60.04
2019-03-11T19:14:17.402Z,61.49
2019-03-11T19:18:22.253Z,61.77
2019-03-11T19:22:27.146Z,61.71
2019-03-11T19:26:32.049Z,61.73
2019-03-11T19:30:36.936Z,61.27
2019-03-11T19:34:41.899Z,61.29
2019-03-11T19:38:46.822Z,61.13
2019-03-11T19:42:51.714Z,61.05
2019-03-11T19:46:56.602Z,61.06
2019-03-11T19:51:01.507Z,61.37
2019-03-11T19:55:07.580Z,61.88
2019-03-11T19:59:12.401Z,62.42
2019-03-11T20:03:26.419Z,62.36
2019-03-11T20:07:24.034Z,61.65
2019-03-11T20:11:29.289Z,61.30
2019-03-11T20:15:34.370Z,61.48
2019-03-11T20:19:39.397Z,61.48
2019-03-11T20:23:44.332Z,61.71
2019-03-11T20:27:49.216Z,62.05
2019-03-11T20:31:54.112Z,62.04
2019-03-11T20:35:58.977Z,62.17
2019-03-11T20:40:05.719Z,62.40
2019-03-11T20:44:10.662Z,62.78
2019-03-11T20:48:15.546Z,63.47
2019-03-11T20:52:20.502Z,64.02
2019-03-11T20:56:25.386Z,64.24
2019-03-11T21:00:30.275Z,64.32
2019-03-11T21:04:35.144Z,64.54
2019-03-11T21:08:40.184Z,64.40
2019-03-11T21:12:45.232Z,64.38
2019-03-11T21:16:50.172Z,64.52
2019-03-11T21:21:03.954Z,64.78
2019-03-11T21:25:01.684Z,64.35
2019-03-11T21:29:06.690Z,64.49
2019-03-11T21:33:11.617Z,64.43
2019-03-11T21:37:16.563Z,64.46
2019-03-11T21:41:21.495Z,64.77
2019-03-11T21:45:34.102Z,65.24
2019-03-11T21:49:33.019Z,65.46
2019-03-11T21:53:38.120Z,65.44
2019-03-11T21:57:42.991Z,65.30
2019-03-11T22:01:47.905Z,65.07
2019-03-11T22:05:52.811Z,64.93
2019-03-11T22:09:57.703Z,64.79
2019-03-11T22:14:02.600Z,64.56
2019-03-11T22:18:07.518Z,64.53
2019-03-11T22:22:12.385Z,64.14
2019-03-11T22:26:17.272Z,64.19
2019-03-11T22:30:24.074Z,63.72
2019-03-11T22:34:28.968Z,63.14
2019-03-11T22:38:33.866Z,63.33
2019-03-11T22:42:38.747Z,63.26
2019-03-11T22:46:43.638Z,63.16
2019-03-11T22:50:48.535Z,63.25
2019-03-11T22:54:53.425Z,63.01
2019-03-11T22:58:58.318Z,62.79
2019-03-11T23:03:06.523Z,63.01
2019-03-11T23:07:09.870Z,62.88
2019-03-11T23:11:14.767Z,62.94
2019-03-11T23:15:19.660Z,63.01
2019-03-11T23:19:24.557Z,62.55
2019-03-11T23:23:29.453Z,62.25
2019-03-11T23:27:35.387Z,61.77
2019-03-11T23:31:40.397Z,61.99
2019-03-11T23:35:45.365Z,61.74
2019-03-11T23:39:50.264Z,61.49
2019-03-11T23:43:55.160Z,61.83
2019-03-11T23:48:00.046Z,62.07
2019-03-11T23:52:04.939Z,62.38
2019-03-11T23:56:09.832Z,62.67
